createdAt,value
2022-11-24T00:00:11.911Z,8.7
2022-11-24T00:01:29.016Z,8.8
2022-11-24T00:02:46.121Z,8.8
2022-11-24T00:04:03.225Z,8.8
2022-11-24T00:05:20.330Z,8.8
2022-11-24T00:06:37.435Z,8.8
2022-11-24T00:07:54.540Z,8.8
2022-11-24T00:09:11.644Z,8.8
2022-11-24T00:10:28.749Z,8.8
2022-11-24T00:11:45.854Z,8.8
2022-11-24T00:13:02.959Z,8.7
2022-11-24T00:14:20.063Z,8.7
2022-11-24T00:15:37.168Z,8.8
2022-11-24T00:16:53.289Z,8.7
2022-11-24T00:18:10.394Z,8.7
2022-11-24T00:19:27.499Z,8.7
2022-11-24T00:20:44.603Z,8.7
2022-11-24T00:22:01.708Z,8.8
2022-11-24T00:23:18.813Z,8.8
2022-11-24T00:24:35.917Z,8.8
2022-11-24T00:25:52.044Z,8.9
2022-11-24T00:27:08.164Z,8.9
2022-11-24T00:28:24.290Z,8.8
2022-11-24T00:29:40.411Z,8.8
2022-11-24T00:30:57.516Z,8.8
2022-11-24T00:32:14.621Z,8.8
2022-11-24T00:33:31.726Z,8.8
2022-11-24T00:34:48.830Z,8.8
2022-11-24T00:36:05.935Z,8.7
2022-11-24T00:37:23.040Z,8.7
2022-11-24T00:38:40.144Z,8.7
2022-11-24T00:39:57.249Z,8.7
2022-11-24T00:41:14.354Z,8.7
2022-11-24T00:42:31.459Z,8.6
2022-11-24T00:43:48.564Z,8.6
2022-11-24T00:45:05.668Z,8.6
2022-11-24T00:46:21.789Z,8.6
2022-11-24T00:47:38.894Z,8.5
2022-11-24T00:48:55.999Z,8.6
2022-11-24T00:50:13.103Z,8.5
2022-11-24T00:51:30.208Z,8.5
2022-11-24T00:52:47.313Z,8.5
2022-11-24T00:54:04.418Z,8.5
2022-11-24T00:55:20.544Z,8.4
2022-11-24T00:56:36.665Z,8.4
2022-11-24T00:57:52.791Z,8.4
2022-11-24T00:59:08.911Z,8.4
2022-11-24T01:00:26.016Z,8.4
2022-11-24T01:01:43.121Z,8.5
2022-11-24T01:03:00.226Z,8.4
2022-11-24T01:04:17.331Z,8.5
2022-11-24T01:05:34.435Z,8.5
2022-11-24T01:06:51.540Z,8.5
2022-11-24T01:08:08.645Z,8.5
2022-11-24T01:09:25.749Z,8.5
2022-11-24T01:10:42.855Z,8.5
2022-11-24T01:11:59.959Z,8.5
2022-11-24T01:13:17.064Z,8.5
2022-11-24T01:14:34.169Z,8.5
2022-11-24T01:15:50.289Z,8.5
2022-11-24T01:17:07.395Z,8.5
2022-11-24T01:18:24.500Z,8.5
2022-11-24T01:19:41.604Z,8.6
2022-11-24T01:20:58.710Z,8.6
2022-11-24T01:22:15.815Z,8.6
2022-11-24T01:23:32.920Z,8.6
2022-11-24T01:24:49.046Z,8.6
2022-11-24T01:26:05.167Z,8.6
2022-11-24T01:27:22.271Z,8.6
2022-11-24T01:28:39.376Z,8.7
2022-11-24T01:29:55.502Z,8.7
2022-11-24T01:31:11.623Z,8.7
2022-11-24T01:32:28.728Z,8.7
2022-11-24T01:33:45.833Z,8.7
2022-11-24T01:35:02.938Z,8.7
2022-11-24T01:36:20.042Z,8.7
2022-11-24T01:37:37.148Z,8.7
2022-11-24T01:38:54.252Z,8.7
2022-11-24T01:40:11.357Z,8.7
2022-11-24T01:41:28.462Z,8.7
2022-11-24T01:42:45.567Z,8.8
2022-11-24T01:44:01.688Z,8.8
2022-11-24T01:45:18.792Z,8.8
2022-11-24T01:46:35.897Z,8.8
2022-11-24T01:47:53.002Z,8.8
2022-11-24T01:49:10.107Z,8.8
2022-11-24T01:50:27.212Z,8.8
2022-11-24T01:51:44.316Z,8.8
2022-11-24T01:53:01.421Z,8.8
2022-11-24T01:54:18.526Z,8.9
2022-11-24T01:55:35.631Z,8.9
2022-11-24T01:56:51.757Z,8.9
2022-11-24T01:58:07.878Z,8.8
2022-11-24T01:59:24.983Z,8.8
2022-11-24T02:00:41.109Z,8.8
2022-11-24T02:01:57.230Z,8.8
2022-11-24T02:03:14.334Z,8.8
2022-11-24T02:04:31.440Z,8.7
2022-11-24T02:05:48.544Z,8.7
2022-11-24T02:07:05.649Z,8.8
2022-11-24T02:08:22.754Z,8.8
2022-11-24T02:09:39.859Z,8.7
2022-11-24T02:10:56.963Z,8.8
2022-11-24T02:12:14.068Z,8.8
2022-11-24T02:13:31.173Z,8.8
2022-11-24T02:14:48.278Z,8.8
2022-11-24T02:16:05.383Z,8.8
2022-11-24T02:17:22.488Z,8.8
2022-11-24T02:18:39.592Z,8.7
2022-11-24T02:19:55.713Z,8.7
2022-11-24T02:21:12.818Z,8.7
2022-11-24T02:22:29.923Z,8.7
2022-11-24T02:23:47.027Z,8.7
2022-11-24T02:25:04.132Z,8.7
2022-11-24T02:26:21.237Z,8.7
2022-11-24T02:27:37.363Z,8.7
2022-11-24T02:28:53.484Z,8.7
2022-11-24T02:30:10.589Z,8.6
2022-11-24T02:31:27.694Z,8.6
2022-11-24T02:32:43.820Z,8.7
2022-11-24T02:33:59.941Z,8.7
2022-11-24T02:35:17.046Z,8.7
2022-11-24T02:36:34.150Z,8.6
2022-11-24T02:37:51.255Z,8.7
2022-11-24T02:39:08.360Z,8.7
2022-11-24T02:40:25.464Z,8.7
2022-11-24T02:41:42.570Z,8.7
2022-11-24T02:42:59.674Z,8.7
2022-11-24T02:44:16.779Z,8.7
2022-11-24T02:45:33.883Z,8.6
2022-11-24T02:46:50.988Z,8.6
2022-11-24T02:48:08.093Z,8.6
2022-11-24T02:49:25.197Z,8.6
2022-11-24T02:50:41.318Z,8.6
2022-11-24T02:51:58.423Z,8.6
2022-11-24T02:53:15.528Z,8.6
2022-11-24T02:54:32.633Z,8.6
2022-11-24T02:55:49.738Z,8.6
2022-11-24T02:57:06.843Z,8.6
2022-11-24T02:58:23.948Z,8.6
2022-11-24T02:59:40.074Z,8.6
2022-11-24T03:00:56.194Z,8.6
2022-11-24T03:02:12.320Z,8.6
2022-11-24T03:03:28.441Z,8.6
2022-11-24T03:04:45.546Z,8.6
2022-11-24T03:06:02.650Z,8.6
2022-11-24T03:07:19.755Z,8.6
2022-11-24T03:08:36.861Z,8.5
2022-11-24T03:09:53.966Z,8.6
2022-11-24T03:11:11.070Z,8.5
2022-11-24T03:12:28.175Z,8.5
2022-11-24T03:13:45.281Z,8.6
2022-11-24T03:15:02.386Z,8.5
2022-11-24T03:16:19.490Z,8.5
2022-11-24T03:17:36.596Z,8.6
2022-11-24T03:18:53.701Z,8.6
2022-11-24T03:20:09.822Z,8.6
2022-11-24T03:21:26.926Z,8.6
2022-11-24T03:22:44.032Z,8.6
2022-11-24T03:24:01.137Z,8.6
2022-11-24T03:25:18.241Z,8.6
2022-11-24T03:26:35.346Z,8.6
2022-11-24T03:27:52.451Z,8.6
2022-11-24T03:29:08.577Z,8.6
2022-11-24T03:30:24.698Z,8.6
2022-11-24T03:31:41.802Z,8.6
2022-11-24T03:32:58.907Z,8.6
2022-11-24T03:34:15.033Z,8.6
2022-11-24T03:35:31.154Z,8.5
2022-11-24T03:36:48.259Z,8.5
2022-11-24T03:38:05.364Z,8.4
2022-11-24T03:39:22.468Z,8.3
2022-11-24T03:40:39.573Z,8.3
2022-11-24T03:41:56.677Z,8.3
2022-11-24T03:43:13.782Z,8.3
2022-11-24T03:44:30.887Z,8.2
2022-11-24T03:45:47.992Z,8.3
2022-11-24T03:47:05.097Z,8.2
2022-11-24T03:48:22.201Z,8.2
2022-11-24T03:49:39.306Z,8.2
2022-11-24T03:50:56.410Z,8.2
2022-11-24T03:52:12.531Z,8.1
2022-11-24T03:53:29.636Z,8.1
2022-11-24T03:54:46.741Z,8
2022-11-24T03:56:03.845Z,7.9
2022-11-24T03:57:20.950Z,8
2022-11-24T03:58:38.055Z,7.9
2022-11-24T03:59:55.160Z,7.9
2022-11-24T04:01:12.265Z,7.8
2022-11-24T04:02:28.391Z,7.8
2022-11-24T04:03:44.511Z,7.7
2022-11-24T04:05:00.637Z,7.8
2022-11-24T04:06:16.758Z,7.8
2022-11-24T04:07:33.863Z,7.8
2022-11-24T04:08:50.967Z,7.7
2022-11-24T04:10:08.072Z,7.8
2022-11-24T04:11:25.177Z,7.8
2022-11-24T04:12:42.282Z,7.8
2022-11-24T04:13:59.387Z,7.9
2022-11-24T04:15:16.492Z,7.8
2022-11-24T04:16:33.597Z,7.8
2022-11-24T04:17:50.702Z,7.8
2022-11-24T04:19:07.806Z,7.8
2022-11-24T04:20:24.911Z,7.9
2022-11-24T04:21:42.016Z,7.9
2022-11-24T04:22:58.137Z,7.9
2022-11-24T04:24:15.242Z,7.9
2022-11-24T04:25:32.347Z,7.9
2022-11-24T04:26:49.451Z,8
2022-11-24T04:28:06.556Z,8
2022-11-24T04:29:23.661Z,8
2022-11-24T04:30:40.765Z,8.1
2022-11-24T04:31:56.891Z,8.1
2022-11-24T04:33:13.012Z,8.1
2022-11-24T04:34:29.138Z,8.2
2022-11-24T04:35:45.259Z,8.2
2022-11-24T04:37:02.364Z,8.2
2022-11-24T04:38:19.468Z,8.2
2022-11-24T04:39:36.573Z,8.2
2022-11-24T04:40:53.678Z,8.2
2022-11-24T04:42:10.783Z,8.3
2022-11-24T04:43:27.887Z,8.3
2022-11-24T04:44:44.992Z,8.3
2022-11-24T04:46:02.097Z,8.3
2022-11-24T04:47:19.201Z,8.3
2022-11-24T04:48:36.306Z,8.4
2022-11-24T04:49:53.411Z,8.4
2022-11-24T04:51:10.516Z,8.4
2022-11-24T04:52:26.637Z,8.5
2022-11-24T04:53:43.742Z,8.5
2022-11-24T04:55:00.846Z,8.5
2022-11-24T04:56:17.951Z,8.6
2022-11-24T04:57:35.056Z,8.5
2022-11-24T04:58:52.161Z,8.5
2022-11-24T05:00:09.265Z,8.5
2022-11-24T05:01:25.391Z,8.6
2022-11-24T05:02:41.512Z,8.6
2022-11-24T05:03:58.617Z,8.6
2022-11-24T05:05:15.722Z,8.6
2022-11-24T05:06:31.848Z,8.6
2022-11-24T05:07:47.969Z,8.6
2022-11-24T05:09:05.074Z,8.6
2022-11-24T05:10:22.178Z,8.6
2022-11-24T05:11:39.283Z,8.6
2022-11-24T05:12:56.388Z,8.7
2022-11-24T05:14:13.492Z,8.7
2022-11-24T05:15:30.597Z,8.7
2022-11-24T05:16:47.702Z,8.7
2022-11-24T05:18:04.807Z,8.8
2022-11-24T05:19:21.912Z,8.8
2022-11-24T05:20:39.016Z,8.8
2022-11-24T05:21:56.121Z,8.8
2022-11-24T05:23:13.226Z,8.8
2022-11-24T05:24:29.347Z,8.8
2022-11-24T05:25:46.451Z,8.9
2022-11-24T05:27:03.556Z,8.9
2022-11-24T05:28:20.661Z,8.9
2022-11-24T05:29:37.766Z,8.9
2022-11-24T05:30:54.870Z,8.9
2022-11-24T05:32:11.975Z,8.9
2022-11-24T05:33:28.101Z,8.9
2022-11-24T05:34:44.222Z,8.9
2022-11-24T05:36:01.327Z,8.9
2022-11-24T05:37:18.432Z,8.9
2022-11-24T05:38:35.537Z,8.9
2022-11-24T05:39:52.642Z,9
2022-11-24T05:41:09.747Z,9
2022-11-24T05:42:26.852Z,9
2022-11-24T05:43:43.956Z,9
2022-11-24T05:45:01.061Z,9
2022-11-24T05:46:18.166Z,9
2022-11-24T05:47:35.268Z,9
2022-11-24T05:48:52.373Z,9
2022-11-24T05:50:09.478Z,9
2022-11-24T05:51:25.599Z,9
2022-11-24T05:52:42.704Z,9
2022-11-24T05:53:59.808Z,9
2022-11-24T05:55:16.913Z,9
2022-11-24T05:56:34.018Z,8.9
2022-11-24T05:57:51.122Z,8.9
2022-11-24T05:59:08.227Z,8.9
2022-11-24T06:00:24.353Z,8.9
2022-11-24T06:01:40.474Z,8.9
2022-11-24T06:02:57.579Z,9
2022-11-24T06:04:13.705Z,9
2022-11-24T06:05:29.826Z,9
2022-11-24T06:06:46.930Z,9
2022-11-24T06:08:03.056Z,9
2022-11-24T06:09:19.177Z,9
2022-11-24T06:10:36.282Z,9
2022-11-24T06:11:53.387Z,9
2022-11-24T06:13:10.492Z,9
2022-11-24T06:14:27.596Z,9
2022-11-24T06:15:44.701Z,9.1
2022-11-24T06:17:01.806Z,9.1
2022-11-24T06:18:18.910Z,9.1
2022-11-24T06:19:36.015Z,9.1
2022-11-24T06:20:53.120Z,9.1
2022-11-24T06:22:10.223Z,9.1
2022-11-24T06:23:27.328Z,9.1
2022-11-24T06:24:44.432Z,9.1
2022-11-24T06:26:00.553Z,9.1
2022-11-24T06:27:17.658Z,9.1
2022-11-24T06:28:34.762Z,9.1
2022-11-24T06:29:51.867Z,9.1
2022-11-24T06:31:08.972Z,9.1
2022-11-24T06:32:26.077Z,9
2022-11-24T06:33:43.182Z,9
2022-11-24T06:34:59.308Z,9
2022-11-24T06:36:15.429Z,9
2022-11-24T06:37:32.534Z,9
2022-11-24T06:38:49.638Z,9
2022-11-24T06:40:06.743Z,9
2022-11-24T06:41:23.848Z,9
2022-11-24T06:42:40.953Z,9
2022-11-24T06:43:58.058Z,9
2022-11-24T06:45:15.163Z,9
2022-11-24T06:46:32.268Z,9
2022-11-24T06:47:49.372Z,9
2022-11-24T06:49:06.477Z,9
2022-11-24T06:50:23.582Z,9
2022-11-24T06:51:40.687Z,9
2022-11-24T06:52:56.808Z,9
2022-11-24T06:54:13.913Z,9.1
2022-11-24T06:55:31.015Z,9.1
2022-11-24T06:56:48.120Z,9.1
2022-11-24T06:58:05.225Z,9.1
2022-11-24T06:59:22.330Z,9.1
2022-11-24T07:00:39.435Z,9.2
2022-11-24T07:01:55.561Z,9.2
2022-11-24T07:03:11.682Z,9.2
2022-11-24T07:04:27.808Z,9.2
2022-11-24T07:05:43.929Z,9.2
2022-11-24T07:07:01.034Z,9.3
2022-11-24T07:08:18.138Z,9.3
2022-11-24T07:09:35.243Z,9.3
2022-11-24T07:10:52.348Z,9.2
2022-11-24T07:12:08.474Z,9.2
2022-11-24T07:13:24.595Z,9.2
2022-11-24T07:14:41.700Z,9.2
2022-11-24T07:15:58.805Z,9.2
2022-11-24T07:17:15.910Z,9.3
2022-11-24T07:18:33.014Z,9.3
2022-11-24T07:19:50.119Z,9.3
2022-11-24T07:21:07.224Z,9.3
2022-11-24T07:22:24.329Z,9.3
2022-11-24T07:23:41.433Z,9.3
2022-11-24T07:24:58.538Z,9.3
2022-11-24T07:26:15.643Z,9.3
2022-11-24T07:27:32.748Z,9.3
2022-11-24T07:28:49.853Z,9.3
2022-11-24T07:30:05.973Z,9.3
2022-11-24T07:31:23.078Z,9.4
2022-11-24T07:32:40.183Z,9.4
2022-11-24T07:33:57.288Z,9.4
2022-11-24T07:35:14.392Z,9.4
2022-11-24T07:36:31.498Z,9.4
2022-11-24T07:37:48.602Z,9.4
2022-11-24T07:39:04.729Z,9.4
2022-11-24T07:40:20.849Z,9.4
2022-11-24T07:41:36.975Z,9.5
2022-11-24T07:42:53.096Z,9.4
2022-11-24T07:44:10.201Z,9.5
2022-11-24T07:45:27.306Z,9.5
2022-11-24T07:46:44.411Z,9.5
2022-11-24T07:48:01.515Z,9.6
2022-11-24T07:49:18.620Z,9.6
2022-11-24T07:50:35.725Z,9.6
2022-11-24T07:51:52.830Z,9.5
2022-11-24T07:53:09.934Z,9.6
2022-11-24T07:54:27.039Z,9.6
2022-11-24T07:55:44.144Z,9.6
2022-11-24T07:57:01.248Z,9.6
2022-11-24T07:58:18.353Z,9.6
2022-11-24T07:59:34.474Z,9.6
2022-11-24T08:00:51.579Z,9.7
2022-11-24T08:02:08.683Z,9.7
2022-11-24T08:03:25.788Z,9.6
2022-11-24T08:04:42.893Z,9.7
2022-11-24T08:05:59.998Z,9.7
2022-11-24T08:07:17.102Z,9.7
2022-11-24T08:08:33.228Z,9.8
2022-11-24T08:09:49.349Z,9.8
2022-11-24T08:11:06.454Z,9.9
2022-11-24T08:12:22.580Z,10
2022-11-24T08:13:38.700Z,10
2022-11-24T08:14:55.805Z,10
2022-11-24T08:16:12.910Z,10
2022-11-24T08:17:30.014Z,10.1
2022-11-24T08:18:47.119Z,10.1
2022-11-24T08:20:04.224Z,10.1
2022-11-24T08:21:21.328Z,10.1
2022-11-24T08:22:38.433Z,10.1
2022-11-24T08:23:55.538Z,10.1
2022-11-24T08:25:12.642Z,10.1
2022-11-24T08:26:29.747Z,10
2022-11-24T08:27:46.852Z,10
2022-11-24T08:29:03.957Z,10
2022-11-24T08:30:20.077Z,10
2022-11-24T08:31:37.182Z,10
2022-11-24T08:32:54.287Z,10
2022-11-24T08:34:11.392Z,10
2022-11-24T08:35:28.497Z,10
2022-11-24T08:36:45.602Z,10
2022-11-24T08:38:02.706Z,10
2022-11-24T08:39:18.832Z,10
2022-11-24T08:40:34.953Z,10
2022-11-24T08:41:51.079Z,10
2022-11-24T08:43:07.200Z,10
2022-11-24T08:44:24.305Z,10
2022-11-24T08:45:41.410Z,10
2022-11-24T08:46:58.514Z,10
2022-11-24T08:48:15.619Z,10
2022-11-24T08:49:32.723Z,10
2022-11-24T08:50:49.828Z,10.1
2022-11-24T08:52:06.933Z,10.1
2022-11-24T08:53:24.037Z,10.1
2022-11-24T08:54:41.142Z,10.1
2022-11-24T08:55:58.247Z,10.1
2022-11-24T08:57:15.352Z,10
2022-11-24T08:58:32.456Z,10.1
2022-11-24T08:59:48.577Z,10
2022-11-24T09:01:05.682Z,10.1
2022-11-24T09:02:22.786Z,10.1
2022-11-24T09:03:39.891Z,10.1
2022-11-24T09:04:56.996Z,10.1
2022-11-24T09:06:14.100Z,10.2
2022-11-24T09:07:31.205Z,10.1
2022-11-24T09:08:47.331Z,10.1
2022-11-24T09:10:03.452Z,10.1
2022-11-24T09:11:19.578Z,10.2
2022-11-24T09:12:35.699Z,10.2
2022-11-24T09:13:52.804Z,10.2
2022-11-24T09:15:09.908Z,10.2
2022-11-24T09:16:27.013Z,10.2
2022-11-24T09:17:44.118Z,10.2
2022-11-24T09:19:01.222Z,10.1
2022-11-24T09:20:18.327Z,10.2
2022-11-24T09:21:35.431Z,10.2
2022-11-24T09:22:52.536Z,10.2
2022-11-24T09:24:09.641Z,10.2
2022-11-24T09:25:26.746Z,10.2
2022-11-24T09:26:43.850Z,10.2
2022-11-24T09:28:00.955Z,10.2
2022-11-24T09:29:17.076Z,10.2
2022-11-24T09:30:34.180Z,10.2
2022-11-24T09:31:51.285Z,10.2
2022-11-24T09:33:08.390Z,10.2
2022-11-24T09:34:25.495Z,10.2
2022-11-24T09:35:42.599Z,10.1
2022-11-24T09:36:59.704Z,10.1
2022-11-24T09:38:15.830Z,10.1
2022-11-24T09:39:31.951Z,10.1
2022-11-24T09:40:49.055Z,10.1
2022-11-24T09:42:06.160Z,10.2
2022-11-24T09:43:22.286Z,10.2
2022-11-24T09:44:38.407Z,10.2
2022-11-24T09:45:55.511Z,10.2
2022-11-24T09:47:12.616Z,10.2
2022-11-24T09:48:29.721Z,10.2
2022-11-24T09:49:46.826Z,10.2
2022-11-24T09:51:03.930Z,10.2
2022-11-24T09:52:21.035Z,10.2
2022-11-24T09:53:38.140Z,10.2
2022-11-24T09:54:55.244Z,10.2
2022-11-24T09:56:12.349Z,10.2
2022-11-24T09:57:29.453Z,10.2
2022-11-24T09:58:46.558Z,10.2
2022-11-24T10:00:03.663Z,10.2
2022-11-24T10:01:19.784Z,10.2
2022-11-24T10:02:36.888Z,10.2
2022-11-24T10:03:53.993Z,10.2
2022-11-24T10:05:11.098Z,10.1
2022-11-24T10:06:28.203Z,10.1
2022-11-24T10:07:45.307Z,10.2
2022-11-24T10:09:02.412Z,10.2
2022-11-24T10:10:18.538Z,10.2
2022-11-24T10:11:34.659Z,10.2
2022-11-24T10:12:51.764Z,10.2
2022-11-24T10:14:07.890Z,10.3
2022-11-24T10:15:24.010Z,10.4
2022-11-24T10:16:41.115Z,10.4
2022-11-24T10:17:58.220Z,10.5
2022-11-24T10:19:14.341Z,10.5
2022-11-24T10:20:31.446Z,10.5
2022-11-24T10:21:48.550Z,10.5
2022-11-24T10:23:05.655Z,10.5
2022-11-24T10:24:22.759Z,10.4
2022-11-24T10:25:39.864Z,10.4
2022-11-24T10:26:56.968Z,10.4
2022-11-24T10:28:14.073Z,10.4
2022-11-24T10:29:31.178Z,10.3
2022-11-24T10:30:48.283Z,10.3
2022-11-24T10:32:05.387Z,10.4
2022-11-24T10:33:22.492Z,10.3
2022-11-24T10:34:39.597Z,10.4
2022-11-24T10:35:55.717Z,10.4
2022-11-24T10:37:12.822Z,10.4
2022-11-24T10:38:29.927Z,10.4
2022-11-24T10:39:47.032Z,10.3
2022-11-24T10:41:03.158Z,10.3
2022-11-24T10:42:19.278Z,10.3
2022-11-24T10:43:35.404Z,10.3
2022-11-24T10:44:51.525Z,10.3
2022-11-24T10:46:08.630Z,10.2
2022-11-24T10:47:25.734Z,10.3
2022-11-24T10:48:42.839Z,10.2
2022-11-24T10:49:59.944Z,10.2
2022-11-24T10:51:17.048Z,10.2
2022-11-24T10:52:34.153Z,10.2
2022-11-24T10:53:51.257Z,10.2
2022-11-24T10:55:08.363Z,10.3
2022-11-24T10:56:25.467Z,10.4
2022-11-24T10:57:42.572Z,10.4
2022-11-24T10:58:59.676Z,10.4
2022-11-24T11:00:16.781Z,10.5
2022-11-24T11:01:32.902Z,10.5
2022-11-24T11:02:50.006Z,10.6
2022-11-24T11:04:07.111Z,10.6
2022-11-24T11:05:24.216Z,10.6
2022-11-24T11:06:41.321Z,10.6
2022-11-24T11:07:58.425Z,10.5
2022-11-24T11:09:15.530Z,10.5
2022-11-24T11:10:31.656Z,10.6
2022-11-24T11:11:47.777Z,10.6
2022-11-24T11:13:04.881Z,10.7
2022-11-24T11:14:21.007Z,10.8
2022-11-24T11:15:37.128Z,10.9
2022-11-24T11:16:54.233Z,10.9
2022-11-24T11:18:11.337Z,10.9
2022-11-24T11:19:28.442Z,11
2022-11-24T11:20:45.547Z,11
2022-11-24T11:22:02.652Z,11
2022-11-24T11:23:19.755Z,11.1
2022-11-24T11:24:36.859Z,11.1
2022-11-24T11:25:53.964Z,11.1
2022-11-24T11:27:11.069Z,11.2
2022-11-24T11:28:28.173Z,11.4
2022-11-24T11:29:45.278Z,11.5
2022-11-24T11:31:02.383Z,11.5
2022-11-24T11:32:18.504Z,11.6
2022-11-24T11:33:35.609Z,11.6
2022-11-24T11:34:52.713Z,11.5
2022-11-24T11:36:09.818Z,11.5
2022-11-24T11:37:26.923Z,11.6
2022-11-24T11:38:44.027Z,11.5
2022-11-24T11:40:01.132Z,11.5
2022-11-24T11:41:17.258Z,11.5
2022-11-24T11:42:33.379Z,11.6
2022-11-24T11:43:50.483Z,11.6
2022-11-24T11:45:06.609Z,11.6
2022-11-24T11:46:22.730Z,11.6
2022-11-24T11:47:39.835Z,11.6
2022-11-24T11:48:56.940Z,11.6
2022-11-24T11:50:14.045Z,11.7
2022-11-24T11:51:31.149Z,11.7
2022-11-24T11:52:48.254Z,11.7
2022-11-24T11:54:05.358Z,11.7
2022-11-24T11:55:22.463Z,11.8
2022-11-24T11:56:39.567Z,11.8
2022-11-24T11:57:56.672Z,11.9
2022-11-24T11:59:13.777Z,11.9
2022-11-24T12:00:30.881Z,11.8
2022-11-24T12:01:47.986Z,11.9
2022-11-24T12:03:04.107Z,11.9
2022-11-24T12:04:21.211Z,12
2022-11-24T12:05:38.316Z,12
2022-11-24T12:06:55.420Z,12.1
2022-11-24T12:08:12.524Z,12.2
2022-11-24T12:09:29.629Z,12.2
2022-11-24T12:10:46.734Z,12.2
2022-11-24T12:12:02.859Z,12.2
2022-11-24T12:13:18.980Z,12.2
2022-11-24T12:14:36.084Z,12.2
2022-11-24T12:15:53.189Z,12.3
2022-11-24T12:17:09.315Z,12.3
2022-11-24T12:18:25.435Z,12.3
2022-11-24T12:19:42.540Z,12.2
2022-11-24T12:20:59.644Z,12.2
2022-11-24T12:22:16.748Z,12.2
2022-11-24T12:23:33.854Z,12.1
2022-11-24T12:24:50.958Z,12
2022-11-24T12:27:25.168Z,12
2022-11-24T12:28:42.272Z,12
2022-11-24T12:29:59.376Z,12
2022-11-24T12:31:16.481Z,12
2022-11-24T12:32:33.585Z,12
2022-11-24T12:33:50.690Z,12
2022-11-24T12:35:06.810Z,12
2022-11-24T12:36:23.915Z,11.9
2022-11-24T12:37:41.020Z,11.9
2022-11-24T12:38:58.124Z,11.9
2022-11-24T12:40:15.229Z,12
2022-11-24T12:41:32.333Z,12
2022-11-24T12:42:49.437Z,12
2022-11-24T12:44:06.542Z,11.9
2022-11-24T12:45:22.668Z,11.9
2022-11-24T12:46:39.773Z,11.8
2022-11-24T12:47:55.899Z,11.9
2022-11-24T12:49:12.020Z,11.8
2022-11-24T12:50:29.124Z,11.8
2022-11-24T12:51:46.229Z,11.8
2022-11-24T12:53:03.334Z,11.7
2022-11-24T12:54:20.439Z,11.7
2022-11-24T12:55:37.543Z,11.6
2022-11-24T12:56:54.648Z,11.6
2022-11-24T12:58:11.752Z,11.6
2022-11-24T12:59:28.857Z,11.5
2022-11-24T13:00:45.962Z,11.4
2022-11-24T13:02:03.067Z,11.4
2022-11-24T13:03:20.172Z,11.4
2022-11-24T13:04:37.277Z,11.4
2022-11-24T13:05:53.398Z,11.4
2022-11-24T13:07:10.503Z,11.4
2022-11-24T13:08:27.607Z,11.4
2022-11-24T13:09:44.712Z,11.4
2022-11-24T13:11:01.817Z,11.3
2022-11-24T13:12:18.921Z,11.4
2022-11-24T13:13:36.026Z,11.4
2022-11-24T13:14:52.152Z,11.4
2022-11-24T13:16:08.273Z,11.5
2022-11-24T13:17:25.378Z,11.7
2022-11-24T13:18:42.482Z,11.7
2022-11-24T13:19:59.587Z,11.9
2022-11-24T13:21:16.692Z,11.9
2022-11-24T13:22:33.796Z,11.9
2022-11-24T13:23:50.901Z,12
2022-11-24T13:25:08.005Z,11.9
2022-11-24T13:26:25.110Z,11.9
2022-11-24T13:27:42.215Z,11.9
2022-11-24T13:28:59.320Z,11.9
2022-11-24T13:30:16.424Z,11.8
2022-11-24T13:31:33.529Z,11.9
2022-11-24T13:32:49.650Z,11.8
2022-11-24T13:34:06.754Z,11.8
2022-11-24T13:35:23.860Z,11.8
2022-11-24T13:36:40.965Z,11.7
2022-11-24T13:37:58.069Z,11.7
2022-11-24T13:39:15.174Z,11.7
2022-11-24T13:40:32.279Z,11.7
2022-11-24T13:41:48.404Z,11.7
2022-11-24T13:43:04.525Z,11.6
2022-11-24T13:44:20.651Z,11.6
2022-11-24T13:45:36.771Z,11.5
2022-11-24T13:46:53.876Z,11.5
2022-11-24T13:48:10.981Z,11.5
2022-11-24T13:49:27.107Z,11.5
2022-11-24T13:50:43.228Z,11.5
2022-11-24T13:52:00.332Z,11.4
2022-11-24T13:53:17.437Z,11.4
2022-11-24T13:54:34.542Z,11.4
2022-11-24T13:55:51.647Z,11.4
2022-11-24T13:57:08.752Z,11.4
2022-11-24T13:58:25.856Z,11.4
2022-11-24T13:59:42.961Z,11.5
2022-11-24T14:01:00.066Z,11.5
2022-11-24T14:02:17.170Z,11.6
2022-11-24T14:03:34.275Z,11.6
2022-11-24T14:04:51.380Z,11.6
2022-11-24T14:06:08.485Z,11.5
2022-11-24T14:07:24.606Z,11.6
2022-11-24T14:08:41.710Z,11.5
2022-11-24T14:09:58.816Z,11.5
2022-11-24T14:11:15.919Z,11.5
2022-11-24T14:12:33.024Z,11.5
2022-11-24T14:13:50.128Z,11.4
2022-11-24T14:15:07.233Z,11.4
2022-11-24T14:16:23.359Z,11.4
2022-11-24T14:17:39.480Z,11.4
2022-11-24T14:18:55.606Z,11.4
2022-11-24T14:20:11.727Z,11.4
2022-11-24T14:21:28.832Z,11.4
2022-11-24T14:22:45.937Z,11.4
2022-11-24T14:24:03.041Z,11.4
2022-11-24T14:25:20.146Z,11.4
2022-11-24T14:26:37.251Z,11.4
2022-11-24T14:27:54.355Z,11.4
2022-11-24T14:29:11.458Z,11.5
2022-11-24T14:30:28.563Z,11.4
2022-11-24T14:31:45.668Z,11.4
2022-11-24T14:33:02.773Z,11.4
2022-11-24T14:34:19.877Z,11.3
2022-11-24T14:35:36.982Z,11.3
2022-11-24T14:36:53.102Z,11.3
2022-11-24T14:38:10.207Z,11.4
2022-11-24T14:39:27.312Z,11.3
2022-11-24T14:40:44.416Z,11.2
2022-11-24T14:42:01.521Z,11.3
2022-11-24T14:43:18.626Z,11.2
2022-11-24T14:44:35.731Z,11.2
2022-11-24T14:45:51.857Z,11.2
2022-11-24T14:47:07.978Z,11.2
2022-11-24T14:48:25.082Z,11.2
2022-11-24T14:49:41.208Z,11.2
2022-11-24T14:50:57.329Z,11.2
2022-11-24T14:52:14.434Z,11.2
2022-11-24T14:53:31.538Z,11.2
2022-11-24T14:54:48.643Z,11.2
2022-11-24T14:56:05.748Z,11.2
2022-11-24T14:57:22.852Z,11.1
2022-11-24T14:58:39.957Z,11.1
2022-11-24T14:59:57.062Z,11.1
2022-11-24T15:01:14.166Z,11.1
2022-11-24T15:02:31.271Z,11.1
2022-11-24T15:03:48.376Z,11.1
2022-11-24T15:05:05.480Z,11
2022-11-24T15:06:22.585Z,11.1
2022-11-24T15:07:38.706Z,11
2022-11-24T15:08:55.810Z,11
2022-11-24T15:10:12.915Z,11
2022-11-24T15:11:30.020Z,11
2022-11-24T15:12:47.125Z,11
2022-11-24T15:14:04.229Z,10.9
2022-11-24T15:15:21.334Z,10.9
2022-11-24T15:16:37.460Z,10.9
2022-11-24T15:17:53.581Z,10.9
2022-11-24T15:19:10.685Z,10.8
2022-11-24T15:20:27.790Z,10.8
2022-11-24T15:21:43.916Z,10.7
2022-11-24T15:23:00.037Z,10.8
2022-11-24T15:24:17.142Z,10.7
2022-11-24T15:25:34.246Z,10.6
2022-11-24T15:26:51.351Z,10.6
2022-11-24T15:28:08.456Z,10.5
2022-11-24T15:29:25.560Z,10.5
2022-11-24T15:30:42.665Z,10.5
2022-11-24T15:31:59.769Z,10.3
2022-11-24T15:33:16.874Z,10.3
2022-11-24T15:34:33.979Z,10.2
2022-11-24T15:35:51.083Z,10.2
2022-11-24T15:37:08.188Z,10.1
2022-11-24T15:38:25.293Z,10
2022-11-24T15:39:41.414Z,10
2022-11-24T15:40:58.519Z,9.9
2022-11-24T15:42:15.623Z,9.8
2022-11-24T15:43:32.728Z,9.7
2022-11-24T15:44:49.832Z,9.7
2022-11-24T15:46:06.937Z,9.7
2022-11-24T15:47:24.042Z,9.6
2022-11-24T15:48:40.168Z,9.6
2022-11-24T15:49:56.289Z,9.5
2022-11-24T15:51:12.415Z,9.4
2022-11-24T15:52:28.536Z,9.4
2022-11-24T15:53:45.641Z,9.3
2022-11-24T15:55:02.746Z,9.3
2022-11-24T15:56:19.851Z,9.3
2022-11-24T15:57:36.956Z,9.3
2022-11-24T15:58:54.060Z,9.1
2022-11-24T16:00:11.165Z,9.1
2022-11-24T16:01:28.270Z,9.1
2022-11-24T16:02:45.375Z,9.1
2022-11-24T16:04:02.480Z,9
2022-11-24T16:05:19.585Z,9
2022-11-24T16:06:36.689Z,8.9
2022-11-24T16:07:53.794Z,8.8
2022-11-24T16:09:09.915Z,8.8
2022-11-24T16:10:27.020Z,8.7
2022-11-24T16:11:44.125Z,8.7
2022-11-24T16:13:01.229Z,8.6
2022-11-24T16:14:18.334Z,8.6
2022-11-24T16:15:35.439Z,8.6
2022-11-24T16:16:52.544Z,8.6
2022-11-24T16:18:08.670Z,8.6
2022-11-24T16:19:24.791Z,8.5
2022-11-24T16:20:41.896Z,8.5
2022-11-24T16:21:58.020Z,8.5
2022-11-24T16:23:14.141Z,8.5
2022-11-24T16:24:31.246Z,8.5
2022-11-24T16:25:48.351Z,8.4
2022-11-24T16:27:05.456Z,8.3
2022-11-24T16:28:22.561Z,8.2
2022-11-24T16:29:39.666Z,8.2
2022-11-24T16:30:56.771Z,8.1
2022-11-24T16:32:13.876Z,8.1
2022-11-24T16:33:30.980Z,8.1
2022-11-24T16:34:48.085Z,8.2
2022-11-24T16:36:05.190Z,8.1
2022-11-24T16:37:22.295Z,8.1
2022-11-24T16:38:39.399Z,8.1
2022-11-24T16:39:55.520Z,8
2022-11-24T16:41:12.625Z,8
2022-11-24T16:42:29.730Z,8
2022-11-24T16:43:46.835Z,8
2022-11-24T16:45:03.940Z,8
2022-11-24T16:46:21.045Z,8
2022-11-24T16:47:38.149Z,8
2022-11-24T16:48:54.275Z,8
2022-11-24T16:50:10.396Z,7.9
2022-11-24T16:51:27.501Z,7.9
2022-11-24T16:52:43.627Z,8
2022-11-24T16:53:59.748Z,7.9
2022-11-24T16:55:16.853Z,7.9
2022-11-24T16:56:33.958Z,7.8
2022-11-24T16:57:51.063Z,7.8
2022-11-24T16:59:08.168Z,7.8
2022-11-24T17:00:25.273Z,7.8
2022-11-24T17:01:42.377Z,7.7
2022-11-24T17:02:59.482Z,7.8
2022-11-24T17:04:16.587Z,7.7
2022-11-24T17:05:33.692Z,7.6
2022-11-24T17:06:50.797Z,7.6
2022-11-24T17:08:07.902Z,7.5
2022-11-24T17:09:25.007Z,7.5
2022-11-24T17:10:41.128Z,7.5
2022-11-24T17:11:58.233Z,7.4
2022-11-24T17:13:15.337Z,7.4
2022-11-24T17:14:32.442Z,7.4
2022-11-24T17:15:49.547Z,7.4
2022-11-24T17:17:06.651Z,7.4
2022-11-24T17:18:23.756Z,7.4
2022-11-24T17:19:39.882Z,7.4
2022-11-24T17:20:56.003Z,7.4
2022-11-24T17:22:13.108Z,7.3
2022-11-24T17:23:29.235Z,7.4
2022-11-24T17:24:45.356Z,7.3
2022-11-24T17:26:02.461Z,7.3
2022-11-24T17:27:19.566Z,7.2
2022-11-24T17:28:36.671Z,7.2
2022-11-24T17:29:53.775Z,7.2
2022-11-24T17:31:10.880Z,7.2
2022-11-24T17:32:27.985Z,7.2
2022-11-24T17:33:45.090Z,7.2